createdAt,value
2023-05-06T00:00:43.962Z,32.54
2023-05-06T00:01:44.022Z,32.52
2023-05-06T00:02:44.116Z,32.53
2023-05-06T00:03:44.498Z,32.55
2023-05-06T00:04:44.179Z,32.56
2023-05-06T00:05:44.216Z,32.53
2023-05-06T00:06:44.295Z,32.57
2023-05-06T00:07:44.312Z,32.56
2023-05-06T00:08:44.379Z,32.54
2023-05-06T00:09:44.408Z,32.58
2023-05-06T00:10:44.478Z,32.58
2023-05-06T00:11:44.536Z,32.60
2023-05-06T00:12:44.631Z,32.61
2023-05-06T00:13:44.648Z,32.60
2023-05-06T00:14:44.686Z,32.60
2023-05-06T00:15:44.734Z,32.60
2023-05-06T00:16:44.985Z,32.62
2023-05-06T00:17:44.872Z,32.61
2023-05-06T00:18:44.946Z,32.60
2023-05-06T00:19:44.960Z,32.63
2023-05-06T00:20:45.080Z,32.64
2023-05-06T00:21:45.041Z,32.65
2023-05-06T00:22:45.103Z,32.66
2023-05-06T00:23:45.184Z,32.64
2023-05-06T00:24:45.234Z,32.65
2023-05-06T00:25:45.293Z,32.62
2023-05-06T00:26:45.338Z,32.65
2023-05-06T00:27:45.395Z,32.67
2023-05-06T00:28:45.443Z,32.65
2023-05-06T00:29:45.513Z,32.64
2023-05-06T00:30:45.561Z,32.68
2023-05-06T00:31:45.649Z,32.66
2023-05-06T00:32:45.728Z,32.65
2023-05-06T00:33:45.737Z,32.70
2023-05-06T00:34:45.799Z,32.69
2023-05-06T00:35:45.822Z,32.67
2023-05-06T00:36:45.972Z,32.69
2023-05-06T00:37:45.947Z,32.68
2023-05-06T00:38:45.985Z,32.70
2023-05-06T00:39:46.070Z,32.68
2023-05-06T00:40:46.069Z,32.71
2023-05-06T00:41:46.172Z,32.71
2023-05-06T00:42:46.241Z,32.76
2023-05-06T00:43:46.260Z,32.75
2023-05-06T00:44:46.349Z,32.75
2023-05-06T00:45:46.423Z,32.74
2023-05-06T00:46:46.478Z,32.76
2023-05-06T00:47:46.516Z,32.70
2023-05-06T00:48:46.578Z,32.75
2023-05-06T00:49:46.696Z,32.76
2023-05-06T00:50:46.710Z,32.75
2023-05-06T00:51:46.775Z,32.74
2023-05-06T00:52:46.896Z,32.73
2023-05-06T00:53:46.884Z,32.74
2023-05-06T00:54:46.934Z,32.75
2023-05-06T00:55:47.037Z,32.76
2023-05-06T00:56:47.041Z,32.75
2023-05-06T00:57:47.103Z,32.77
2023-05-06T00:58:47.185Z,32.75
2023-05-06T00:59:47.249Z,32.74
2023-05-06T01:00:47.351Z,32.74
2023-05-06T01:01:47.355Z,32.78
2023-05-06T01:02:48.117Z,32.78
2023-05-06T01:03:47.566Z,32.78
2023-05-06T01:04:47.616Z,32.78
2023-05-06T01:05:47.549Z,32.80
2023-05-06T01:06:47.623Z,32.77
2023-05-06T01:07:47.705Z,32.80
2023-05-06T01:08:47.758Z,32.76
2023-05-06T01:09:47.809Z,32.80
2023-05-06T01:10:47.875Z,32.78
2023-05-06T01:11:47.920Z,32.84
2023-05-06T01:12:47.977Z,32.80
2023-05-06T01:13:48.028Z,32.82
2023-05-06T01:14:48.102Z,32.82
2023-05-06T01:15:48.149Z,32.79
2023-05-06T01:16:48.215Z,32.82
2023-05-06T01:17:48.295Z,32.83
2023-05-06T01:18:48.271Z,32.85
2023-05-06T01:19:48.370Z,32.81
2023-05-06T01:20:48.388Z,32.83
2023-05-06T01:21:48.446Z,32.78
2023-05-06T01:22:48.508Z,32.81
2023-05-06T01:23:48.565Z,32.79
2023-05-06T01:24:48.680Z,32.81
2023-05-06T01:25:48.665Z,32.80
2023-05-06T01:26:48.729Z,32.79
2023-05-06T01:27:48.812Z,32.81
2023-05-06T01:28:48.856Z,32.84
2023-05-06T01:29:48.924Z,32.85
2023-05-06T01:30:48.962Z,32.83
2023-05-06T01:31:49.004Z,32.85
2023-05-06T01:32:49.151Z,32.84
2023-05-06T01:33:49.155Z,32.82
2023-05-06T01:34:49.201Z,32.82
2023-05-06T01:35:49.227Z,32.79
2023-05-06T01:36:49.308Z,32.81
2023-05-06T01:37:49.324Z,32.81
2023-05-06T01:38:49.443Z,32.80
2023-05-06T01:39:49.529Z,32.82
2023-05-06T01:40:49.598Z,32.85
2023-05-06T01:41:49.634Z,32.83
2023-05-06T01:42:49.662Z,32.84
2023-05-06T01:43:49.776Z,32.82
2023-05-06T01:44:49.806Z,32.85
2023-05-06T01:45:49.848Z,32.85
2023-05-06T01:46:49.997Z,32.85
2023-05-06T01:47:50.026Z,32.83
2023-05-06T01:48:50.067Z,32.80
2023-05-06T01:49:50.124Z,32.82
2023-05-06T01:50:50.181Z,32.84
2023-05-06T01:51:50.239Z,32.83
2023-05-06T01:52:50.300Z,32.85
2023-05-06T01:53:50.357Z,32.86
2023-05-06T01:54:50.418Z,32.82
2023-05-06T01:55:50.532Z,32.82
2023-05-06T01:56:50.585Z,32.85
2023-05-06T01:57:50.601Z,32.83
2023-05-06T01:58:50.659Z,32.84
2023-05-06T01:59:50.686Z,32.83
2023-05-06T02:00:50.840Z,32.83
2023-05-06T02:01:50.979Z,32.81
2023-05-06T02:02:50.998Z,32.84
2023-05-06T02:03:50.992Z,32.84
2023-05-06T02:04:51.042Z,32.85
2023-05-06T02:05:51.113Z,32.85
2023-05-06T02:06:51.136Z,32.82
2023-05-06T02:07:51.200Z,32.84
2023-05-06T02:08:51.281Z,32.86
2023-05-06T02:09:51.322Z,32.85
2023-05-06T02:10:51.401Z,32.87
2023-05-06T02:11:51.444Z,32.85
2023-05-06T02:12:51.656Z,32.85
2023-05-06T02:13:51.522Z,32.84
2023-05-06T02:14:51.600Z,32.84
2023-05-06T02:15:51.689Z,32.83
2023-05-06T02:16:51.724Z,32.85
2023-05-06T02:17:51.872Z,32.81
2023-05-06T02:18:51.845Z,32.82
2023-05-06T02:19:51.888Z,32.85
2023-05-06T02:20:51.964Z,32.87
2023-05-06T02:21:52.066Z,32.85
2023-05-06T02:22:52.084Z,32.84
2023-05-06T02:23:52.142Z,32.82
2023-05-06T02:24:52.220Z,32.83
2023-05-06T02:25:52.231Z,32.83
2023-05-06T02:26:52.329Z,32.85
2023-05-06T02:27:52.402Z,32.85
2023-05-06T02:28:52.563Z,32.84
2023-05-06T02:29:52.562Z,32.87
2023-05-06T02:30:52.616Z,32.84
2023-05-06T02:31:52.727Z,32.86
2023-05-06T02:32:52.805Z,32.83
2023-05-06T02:33:52.775Z,32.84
2023-05-06T02:34:52.841Z,32.84
2023-05-06T02:35:52.900Z,32.83
2023-05-06T02:36:52.963Z,32.85
2023-05-06T02:37:52.996Z,32.85
2023-05-06T02:38:53.109Z,32.84
2023-05-06T02:39:53.129Z,32.85
2023-05-06T02:40:53.238Z,32.87
2023-05-06T02:41:53.235Z,32.85
2023-05-06T02:42:53.309Z,32.83
2023-05-06T02:43:53.357Z,32.84
2023-05-06T02:44:53.418Z,32.86
2023-05-06T02:45:53.552Z,32.85
2023-05-06T02:46:53.604Z,32.85
2023-05-06T02:47:53.693Z,32.83
2023-05-06T02:48:53.662Z,32.83
2023-05-06T02:49:53.713Z,32.81
2023-05-06T02:50:53.806Z,32.83
2023-05-06T02:51:53.884Z,32.84
2023-05-06T02:52:53.918Z,32.81
2023-05-06T02:53:54.004Z,32.85
2023-05-06T02:54:54.164Z,32.84
2023-05-06T02:55:54.117Z,32.86
2023-05-06T02:56:54.168Z,32.88
2023-05-06T02:57:54.280Z,32.84
2023-05-06T02:58:54.304Z,32.83
2023-05-06T02:59:54.359Z,32.85
2023-05-06T03:00:54.512Z,32.86
2023-05-06T03:01:54.517Z,32.84
2023-05-06T03:02:54.545Z,32.84
2023-05-06T03:03:54.661Z,32.82
2023-05-06T03:04:54.698Z,32.82
2023-05-06T03:05:54.720Z,32.84
2023-05-06T03:06:54.786Z,32.83
2023-05-06T03:07:54.877Z,32.84
2023-05-06T03:08:54.912Z,32.88
2023-05-06T03:09:54.944Z,32.85
2023-05-06T03:10:55.041Z,32.83
2023-05-06T03:11:55.153Z,32.86
2023-05-06T03:12:55.191Z,32.87
2023-05-06T03:13:55.194Z,32.88
2023-05-06T03:14:55.222Z,32.89
2023-05-06T03:15:55.288Z,32.88
2023-05-06T03:16:55.427Z,32.88
2023-05-06T03:17:55.527Z,32.87
2023-05-06T03:18:55.393Z,32.86
2023-05-06T03:19:55.430Z,32.86
2023-05-06T03:20:55.469Z,32.86
2023-05-06T03:21:55.496Z,32.87
2023-05-06T03:22:55.541Z,32.86
2023-05-06T03:23:55.585Z,32.88
2023-05-06T03:24:55.680Z,32.87
2023-05-06T03:25:55.676Z,32.88
2023-05-06T03:26:55.695Z,32.85
2023-05-06T03:27:55.739Z,32.85
2023-05-06T03:28:55.788Z,32.87
2023-05-06T03:29:55.826Z,32.85
2023-05-06T03:30:55.886Z,32.84
2023-05-06T03:31:55.922Z,32.89
2023-05-06T03:32:55.963Z,32.87
2023-05-06T03:33:55.937Z,32.88
2023-05-06T03:34:55.978Z,32.89
2023-05-06T03:35:56.007Z,32.89
2023-05-06T03:36:56.088Z,32.88
2023-05-06T03:37:56.072Z,32.89
2023-05-06T03:38:56.083Z,32.87
2023-05-06T03:39:56.111Z,32.92
2023-05-06T03:40:56.148Z,32.91
2023-05-06T03:41:56.171Z,32.91
2023-05-06T03:42:56.212Z,32.90
2023-05-06T03:43:56.287Z,32.92
2023-05-06T03:44:56.290Z,32.89
2023-05-06T03:45:56.340Z,32.91
2023-05-06T03:46:56.351Z,32.93
2023-05-06T03:47:58.356Z,32.91
2023-05-06T03:48:56.367Z,32.94
2023-05-06T03:49:56.450Z,32.93
2023-05-06T03:50:56.424Z,32.91
2023-05-06T03:51:56.433Z,32.92
2023-05-06T03:52:56.454Z,32.91
2023-05-06T03:53:56.489Z,32.92
2023-05-06T03:54:56.500Z,32.91
2023-05-06T03:55:56.504Z,32.93
2023-05-06T03:56:56.511Z,32.93
2023-05-06T03:57:56.540Z,32.94
2023-05-06T03:58:56.545Z,32.96
2023-05-06T03:59:56.551Z,32.94
2023-05-06T04:00:56.637Z,32.91
2023-05-06T04:01:56.614Z,32.93
2023-05-06T04:02:56.692Z,32.96
2023-05-06T04:03:56.668Z,32.95
2023-05-06T04:04:56.668Z,32.95
2023-05-06T04:05:56.681Z,32.95
2023-05-06T04:06:56.697Z,32.95
2023-05-06T04:07:56.760Z,32.95
2023-05-06T04:08:56.765Z,32.95
2023-05-06T04:09:56.789Z,32.98
2023-05-06T04:10:56.789Z,32.96
2023-05-06T04:11:56.886Z,32.98
2023-05-06T04:12:56.915Z,32.95
2023-05-06T04:13:56.917Z,32.95
2023-05-06T04:14:56.952Z,33.00
2023-05-06T04:15:56.945Z,32.99
2023-05-06T04:16:56.959Z,32.98
2023-05-06T04:17:57.062Z,32.95
2023-05-06T04:18:56.995Z,32.99
2023-05-06T04:19:57.036Z,32.97
2023-05-06T04:20:57.191Z,32.96
2023-05-06T04:21:57.057Z,32.98
2023-05-06T04:22:57.056Z,33.02
2023-05-06T04:23:57.076Z,33.00
2023-05-06T04:24:57.057Z,33.01
2023-05-06T04:25:57.076Z,33.04
2023-05-06T04:26:57.132Z,33.03
2023-05-06T04:27:57.209Z,33.02
2023-05-06T04:28:57.214Z,33.03
2023-05-06T04:29:57.204Z,33.02
2023-05-06T04:30:57.214Z,33.03
2023-05-06T04:31:57.261Z,33.03
2023-05-06T04:32:57.280Z,33.04
2023-05-06T04:33:57.187Z,33.05
2023-05-06T04:34:57.289Z,33.04
2023-05-06T04:35:57.289Z,33.04
2023-05-06T04:36:57.234Z,33.06
2023-05-06T04:37:57.264Z,33.02
2023-05-06T04:38:57.269Z,33.05
2023-05-06T04:39:57.276Z,33.01
2023-05-06T04:40:57.914Z,33.05
2023-05-06T04:41:57.300Z,33.04
2023-05-06T04:42:57.307Z,33.03
2023-05-06T04:43:57.245Z,33.07
2023-05-06T04:44:57.319Z,33.06
2023-05-06T04:45:57.310Z,33.07
2023-05-06T04:46:57.321Z,33.05
2023-05-06T04:47:57.326Z,33.07
2023-05-06T04:48:57.288Z,33.07
2023-05-06T04:49:57.321Z,33.09
2023-05-06T04:50:57.310Z,33.07
2023-05-06T04:51:57.308Z,33.08
2023-05-06T04:52:57.385Z,33.10
2023-05-06T04:53:57.313Z,33.10
2023-05-06T04:54:57.329Z,33.11
2023-05-06T04:55:57.357Z,33.12
2023-05-06T04:56:57.401Z,33.14
2023-05-06T04:57:57.350Z,33.13
2023-05-06T04:58:57.327Z,33.12
2023-05-06T04:59:57.351Z,33.13
2023-05-06T05:00:57.422Z,33.14
2023-05-06T05:01:57.364Z,33.15
2023-05-06T05:02:57.420Z,33.13
2023-05-06T05:03:57.384Z,33.16
2023-05-06T05:04:57.389Z,33.14
2023-05-06T05:05:57.379Z,33.14
2023-05-06T05:06:57.408Z,33.14
2023-05-06T05:07:57.416Z,33.12
2023-05-06T05:08:58.193Z,33.15
2023-05-06T05:09:57.413Z,33.14
2023-05-06T05:10:57.465Z,33.15
2023-05-06T05:11:57.451Z,33.14
2023-05-06T05:12:57.561Z,33.13
2023-05-06T05:13:58.367Z,33.13
2023-05-06T05:14:57.520Z,33.18
2023-05-06T05:15:57.531Z,33.17
2023-05-06T05:16:57.593Z,33.18
2023-05-06T05:17:57.636Z,33.19
2023-05-06T05:18:57.600Z,33.19
2023-05-06T05:19:57.618Z,33.19
2023-05-06T05:20:57.613Z,33.20
2023-05-06T05:21:57.675Z,33.23
2023-05-06T05:22:57.703Z,33.21
2023-05-06T05:23:57.725Z,33.23
2023-05-06T05:24:57.747Z,33.22
2023-05-06T05:25:57.755Z,33.24
2023-05-06T05:26:57.820Z,33.22
2023-05-06T05:27:57.803Z,33.24
2023-05-06T05:28:57.825Z,33.24
2023-05-06T05:29:57.830Z,33.27
2023-05-06T05:30:57.861Z,33.28
2023-05-06T05:31:57.847Z,33.31
2023-05-06T05:32:57.952Z,33.33
2023-05-06T05:33:57.916Z,33.31
2023-05-06T05:34:57.863Z,33.29
2023-05-06T05:35:57.885Z,33.33
2023-05-06T05:36:57.876Z,33.33
2023-05-06T05:37:57.877Z,33.35
2023-05-06T05:38:57.881Z,33.35
2023-05-06T05:39:57.906Z,33.36
2023-05-06T05:40:57.919Z,33.36
2023-05-06T05:41:57.910Z,33.35
2023-05-06T05:42:57.911Z,33.37
2023-05-06T05:43:57.918Z,33.38
2023-05-06T05:44:57.850Z,33.42
2023-05-06T05:45:57.911Z,33.38
2023-05-06T05:46:57.890Z,33.45
2023-05-06T05:47:57.938Z,33.39
2023-05-06T05:48:57.918Z,33.41
2023-05-06T05:49:57.882Z,33.43
2023-05-06T05:50:57.902Z,33.44
2023-05-06T05:51:57.871Z,33.44
2023-05-06T05:52:57.898Z,33.45
2023-05-06T05:53:57.889Z,33.47
2023-05-06T05:54:57.887Z,33.46
2023-05-06T05:55:57.918Z,33.46
2023-05-06T05:56:58.066Z,33.45
2023-05-06T05:57:57.914Z,33.48
2023-05-06T05:58:57.864Z,33.46
2023-05-06T05:59:57.841Z,33.45
2023-05-06T06:00:57.867Z,33.46
2023-05-06T06:01:57.844Z,33.47
2023-05-06T06:02:57.882Z,33.51
2023-05-06T06:03:58.059Z,33.49
2023-05-06T06:04:57.993Z,33.50
2023-05-06T06:05:57.898Z,33.45
2023-05-06T06:06:57.926Z,33.49
2023-05-06T06:07:57.985Z,33.48
2023-05-06T06:08:57.958Z,33.47
2023-05-06T06:09:57.981Z,33.49
2023-05-06T06:10:58.049Z,33.51
2023-05-06T06:11:58.037Z,33.51
2023-05-06T06:12:58.164Z,33.52
2023-05-06T06:13:58.049Z,33.52
2023-05-06T06:14:58.045Z,33.54
2023-05-06T06:15:58.062Z,33.53
2023-05-06T06:16:58.099Z,33.54
2023-05-06T06:17:58.234Z,33.53
2023-05-06T06:18:58.214Z,33.56
2023-05-06T06:19:58.186Z,33.58
2023-05-06T06:20:58.286Z,33.60
2023-05-06T06:21:58.221Z,33.60
2023-05-06T06:22:58.227Z,33.61
2023-05-06T06:23:58.251Z,33.60
2023-05-06T06:24:58.304Z,33.63
2023-05-06T06:25:58.296Z,33.60
2023-05-06T06:26:58.336Z,33.61
2023-05-06T06:27:58.392Z,33.61
2023-05-06T06:28:58.575Z,33.60
2023-05-06T06:29:58.434Z,33.63
2023-05-06T06:30:58.456Z,33.60
2023-05-06T06:31:58.520Z,33.58
2023-05-06T06:32:58.536Z,33.57
2023-05-06T06:33:58.499Z,33.60
2023-05-06T06:34:58.543Z,33.60
2023-05-06T06:35:58.645Z,33.58
2023-05-06T06:36:58.587Z,33.58
2023-05-06T06:37:58.596Z,33.59
2023-05-06T06:38:58.636Z,33.61
2023-05-06T06:39:58.674Z,33.60
2023-05-06T06:40:58.724Z,33.60
2023-05-06T06:41:58.721Z,33.60
2023-05-06T06:42:58.789Z,33.57
2023-05-06T06:43:58.782Z,33.60
2023-05-06T06:44:58.865Z,33.60
2023-05-06T06:45:58.910Z,33.60
2023-05-06T06:46:58.977Z,33.61
2023-05-06T06:47:58.948Z,33.61
2023-05-06T06:48:58.922Z,33.61
2023-05-06T06:49:59.014Z,33.59
2023-05-06T06:50:59.035Z,33.63
2023-05-06T06:51:59.033Z,33.61
2023-05-06T06:52:59.079Z,33.63
2023-05-06T06:53:59.062Z,33.61
2023-05-06T06:54:59.179Z,33.62
2023-05-06T06:55:59.186Z,33.64
2023-05-06T06:56:59.235Z,33.66
2023-05-06T06:57:59.273Z,33.64
2023-05-06T06:58:59.302Z,33.60
2023-05-06T06:59:59.326Z,33.61
2023-05-06T07:00:59.648Z,33.61
2023-05-06T07:01:59.393Z,33.58
2023-05-06T07:02:59.442Z,33.61
2023-05-06T07:03:59.567Z,33.59
2023-05-06T07:04:59.603Z,33.59
2023-05-06T07:05:59.593Z,33.56
2023-05-06T07:06:59.707Z,33.56
2023-05-06T07:07:59.747Z,33.55
2023-05-06T07:08:59.834Z,33.58
2023-05-06T07:09:59.880Z,33.57
2023-05-06T07:10:59.897Z,33.55
2023-05-06T07:11:59.995Z,33.55
2023-05-06T07:13:00.151Z,33.54
2023-05-06T07:14:00.176Z,33.53
2023-05-06T07:15:00.196Z,33.51
2023-05-06T07:16:00.236Z,33.50
2023-05-06T07:17:00.351Z,33.52
2023-05-06T07:18:00.346Z,33.49
2023-05-06T07:19:00.355Z,33.47
2023-05-06T07:20:00.402Z,33.48
2023-05-06T07:21:00.464Z,33.48
2023-05-06T07:22:00.583Z,33.48
2023-05-06T07:23:00.566Z,33.46
2023-05-06T07:24:00.645Z,33.42
2023-05-06T07:25:00.687Z,33.43
2023-05-06T07:26:00.779Z,33.43
2023-05-06T07:27:00.797Z,33.41
2023-05-06T07:28:00.872Z,33.39
2023-05-06T07:29:00.998Z,33.41
2023-05-06T07:30:01.010Z,33.40
2023-05-06T07:31:01.155Z,33.41
2023-05-06T07:32:01.144Z,33.41
2023-05-06T07:33:01.416Z,33.38
2023-05-06T07:34:01.251Z,33.38
2023-05-06T07:35:01.469Z,33.37
2023-05-06T07:36:01.375Z,33.35
2023-05-06T07:37:01.439Z,33.36
2023-05-06T07:38:01.486Z,33.34
2023-05-06T07:39:01.573Z,33.33
2023-05-06T07:40:01.625Z,33.32
2023-05-06T07:41:01.688Z,33.33
2023-05-06T07:42:01.801Z,33.35
2023-05-06T07:43:01.826Z,33.32
2023-05-06T07:44:01.864Z,33.28
2023-05-06T07:45:01.912Z,33.24
2023-05-06T07:46:02.008Z,33.30
2023-05-06T07:47:02.213Z,33.28
2023-05-06T07:48:02.127Z,33.28
2023-05-06T07:49:02.243Z,33.28
2023-05-06T07:50:02.210Z,33.24
2023-05-06T07:51:02.225Z,33.24
2023-05-06T07:52:02.281Z,33.22
2023-05-06T07:53:02.352Z,33.23
2023-05-06T07:54:02.394Z,33.26
2023-05-06T07:55:02.453Z,33.23
2023-05-06T07:56:02.558Z,33.26
2023-05-06T07:57:02.542Z,33.20
2023-05-06T07:58:02.582Z,33.21
2023-05-06T07:59:02.671Z,33.17
2023-05-06T08:00:02.674Z,33.17
2023-05-06T08:01:02.733Z,33.16
2023-05-06T08:02:02.808Z,33.19
2023-05-06T08:03:02.964Z,33.15
2023-05-06T08:04:03.008Z,33.13
2023-05-06T08:05:03.012Z,33.12
2023-05-06T08:06:03.117Z,33.10
2023-05-06T08:07:03.027Z,33.05
2023-05-06T08:08:03.149Z,33.04
2023-05-06T08:09:03.214Z,33.07
2023-05-06T08:10:03.210Z,33.07
2023-05-06T08:11:03.278Z,33.06
2023-05-06T08:12:03.346Z,33.08
2023-05-06T08:13:03.403Z,33.07
2023-05-06T08:14:03.439Z,33.07
2023-05-06T08:15:03.486Z,33.05
2023-05-06T08:16:03.545Z,33.05
2023-05-06T08:17:04.308Z,33.01
2023-05-06T08:18:13.929Z,33.03
2023-05-06T08:19:04.610Z,33.05
2023-05-06T08:20:03.584Z,33.02
2023-05-06T08:21:03.719Z,33.05
2023-05-06T08:22:03.626Z,33.03
2023-05-06T08:23:03.564Z,32.99
2023-05-06T08:24:03.625Z,32.96
2023-05-06T08:25:03.580Z,33.01
2023-05-06T08:26:03.554Z,32.97
2023-05-06T08:27:03.560Z,32.96
2023-05-06T08:28:03.593Z,32.95
2023-05-06T08:29:03.614Z,32.94
2023-05-06T08:30:03.690Z,32.93
2023-05-06T08:31:03.657Z,32.91
2023-05-06T08:32:03.788Z,32.92
2023-05-06T08:33:03.855Z,32.91
2023-05-06T08:34:03.823Z,32.92
2023-05-06T08:35:03.844Z,32.89
2023-05-06T08:36:03.892Z,32.96
2023-05-06T08:37:04.073Z,32.91
2023-05-06T08:38:03.986Z,32.88
2023-05-06T08:39:04.017Z,32.87
2023-05-06T08:40:04.019Z,32.91
2023-05-06T08:41:04.084Z,32.90
2023-05-06T08:42:04.141Z,32.89
2023-05-06T08:43:04.185Z,32.88
2023-05-06T08:44:04.188Z,32.89
2023-05-06T08:45:04.208Z,32.93
2023-05-06T08:46:04.327Z,32.93
2023-05-06T08:47:04.350Z,32.92
2023-05-06T08:48:04.355Z,32.90
2023-05-06T08:49:04.365Z,32.91
2023-05-06T08:50:04.370Z,32.91
2023-05-06T08:51:04.466Z,32.89
2023-05-06T08:52:05.027Z,32.92
2023-05-06T08:53:04.526Z,32.91
2023-05-06T08:54:04.555Z,32.92
2023-05-06T08:55:04.609Z,32.94
2023-05-06T08:56:04.592Z,32.90
2023-05-06T08:57:04.668Z,32.92
2023-05-06T08:58:04.739Z,32.92
2023-05-06T08:59:04.768Z,32.90
2023-05-06T09:00:04.854Z,32.95
2023-05-06T09:01:04.880Z,32.91
2023-05-06T09:02:04.865Z,32.98
2023-05-06T09:03:04.958Z,32.94
2023-05-06T09:04:04.955Z,32.94
2023-05-06T09:05:04.954Z,32.96
2023-05-06T09:06:05.028Z,32.99
2023-05-06T09:07:05.040Z,32.98
2023-05-06T09:08:05.095Z,32.99
2023-05-06T09:09:05.166Z,33.05
2023-05-06T09:10:05.119Z,33.00
2023-05-06T09:11:05.212Z,33.05
2023-05-06T09:12:05.212Z,33.04
2023-05-06T09:13:05.286Z,33.04
2023-05-06T09:14:05.281Z,33.05
2023-05-06T09:15:05.308Z,33.04
2023-05-06T09:16:05.323Z,33.08
2023-05-06T09:17:05.519Z,33.10
2023-05-06T09:18:05.505Z,33.08
2023-05-06T09:19:05.465Z,33.06
2023-05-06T09:20:05.491Z,33.05
2023-05-06T09:21:05.531Z,33.10
2023-05-06T09:22:05.545Z,33.10
2023-05-06T09:23:05.603Z,33.08
2023-05-06T09:24:05.658Z,33.09
2023-05-06T09:25:05.759Z,33.09
2023-05-06T09:26:05.719Z,33.08
2023-05-06T09:27:05.731Z,33.11
2023-05-06T09:28:05.806Z,33.11
2023-05-06T09:29:05.803Z,33.14
2023-05-06T09:30:05.867Z,33.12
2023-05-06T09:31:05.939Z,33.12
2023-05-06T09:32:05.910Z,33.14
2023-05-06T09:33:05.928Z,33.14
2023-05-06T09:34:05.975Z,33.16
2023-05-06T09:35:05.998Z,33.15
2023-05-06T09:36:06.052Z,33.15
2023-05-06T09:37:06.086Z,33.15
2023-05-06T09:38:07.262Z,33.14
2023-05-06T09:39:06.171Z,33.17
2023-05-06T09:40:06.191Z,33.17
2023-05-06T09:41:06.260Z,33.16
2023-05-06T09:42:06.237Z,33.16
2023-05-06T09:43:06.295Z,33.16
2023-05-06T09:44:06.370Z,33.17
2023-05-06T09:45:06.352Z,33.18
2023-05-06T09:46:06.394Z,33.19
2023-05-06T09:47:06.449Z,33.19
2023-05-06T09:48:06.523Z,33.18
2023-05-06T09:49:06.488Z,33.19
2023-05-06T09:50:06.496Z,33.15
2023-05-06T09:51:06.517Z,33.17
2023-05-06T09:52:06.612Z,33.18
2023-05-06T09:53:06.634Z,33.17
2023-05-06T09:54:06.652Z,33.19
2023-05-06T09:55:06.704Z,33.18
2023-05-06T09:56:06.745Z,33.21
2023-05-06T09:57:06.840Z,33.21
2023-05-06T09:58:06.812Z,33.17
2023-05-06T09:59:06.939Z,33.16
2023-05-06T10:00:06.879Z,33.18
2023-05-06T10:01:06.946Z,33.22
2023-05-06T10:02:07.035Z,33.22
2023-05-06T10:03:07.074Z,33.21
2023-05-06T10:04:07.167Z,33.20
2023-05-06T10:05:07.092Z,33.18
2023-05-06T10:06:07.109Z,33.19
2023-05-06T10:07:07.156Z,33.21
2023-05-06T10:08:07.199Z,33.18
2023-05-06T10:09:07.229Z,33.22
2023-05-06T10:10:07.266Z,33.25
2023-05-06T10:11:07.249Z,33.24
2023-05-06T10:12:07.330Z,33.24
2023-05-06T10:13:07.448Z,33.25
2023-05-06T10:14:07.387Z,33.25
2023-05-06T10:15:07.453Z,33.21
2023-05-06T10:16:07.508Z,33.22
2023-05-06T10:17:07.505Z,33.23
2023-05-06T10:18:07.577Z,33.21
2023-05-06T10:19:07.579Z,33.25
2023-05-06T10:20:07.575Z,33.28
2023-05-06T10:21:07.637Z,33.27
2023-05-06T10:22:07.714Z,33.28
2023-05-06T10:23:07.722Z,33.24
2023-05-06T10:24:07.820Z,33.28
2023-05-06T10:25:07.844Z,33.28
2023-05-06T10:26:07.845Z,33.27
2023-05-06T10:27:07.842Z,33.29
2023-05-06T10:28:10.521Z,33.28
2023-05-06T10:29:08.921Z,33.28
2023-05-06T10:30:07.854Z,33.26
2023-05-06T10:31:07.873Z,33.23
2023-05-06T10:32:07.963Z,33.30
2023-05-06T10:33:08.117Z,33.33
2023-05-06T10:34:07.841Z,33.32
2023-05-06T10:35:07.853Z,33.31
2023-05-06T10:36:07.856Z,33.31
2023-05-06T10:37:07.762Z,33.30
2023-05-06T10:38:07.828Z,33.30
2023-05-06T10:39:07.765Z,33.30
2023-05-06T10:40:07.774Z,33.31
2023-05-06T10:41:07.821Z,33.36
2023-05-06T10:42:07.762Z,33.32
2023-05-06T10:43:07.727Z,33.35
2023-05-06T10:44:07.728Z,33.35
2023-05-06T10:45:07.843Z,33.36
2023-05-06T10:46:07.820Z,33.33
2023-05-06T10:47:07.757Z,33.34
2023-05-06T10:48:07.865Z,33.33
2023-05-06T10:49:07.800Z,33.33
2023-05-06T10:50:07.844Z,33.37
2023-05-06T10:51:07.862Z,33.36
2023-05-06T10:52:07.863Z,33.34
2023-05-06T10:53:07.949Z,33.35
2023-05-06T10:54:07.913Z,33.36
2023-05-06T10:55:08.051Z,33.37
2023-05-06T10:56:07.981Z,33.36
2023-05-06T10:57:08.010Z,33.35
2023-05-06T10:58:08.034Z,33.37
2023-05-06T10:59:08.299Z,33.37
2023-05-06T11:00:08.050Z,33.34
2023-05-06T11:01:08.150Z,33.33
2023-05-06T11:02:08.119Z,33.35
2023-05-06T11:03:08.341Z,33.34
2023-05-06T11:04:08.154Z,33.36
2023-05-06T11:05:08.251Z,33.32
2023-05-06T11:06:08.209Z,33.32
2023-05-06T11:07:08.213Z,33.35
2023-05-06T11:08:08.217Z,33.32
2023-05-06T11:09:08.245Z,33.31
2023-05-06T11:10:08.369Z,33.32
2023-05-06T11:11:08.262Z,33.27
2023-05-06T11:12:08.293Z,33.33
2023-05-06T11:13:08.326Z,33.32
2023-05-06T11:14:08.306Z,33.31
2023-05-06T11:15:08.493Z,33.30
2023-05-06T11:16:08.332Z,33.30
2023-05-06T11:17:08.447Z,33.28
2023-05-06T11:18:08.414Z,33.29
2023-05-06T11:19:08.407Z,33.28
2023-05-06T11:20:08.606Z,33.25
2023-05-06T11:21:08.403Z,33.29
2023-05-06T11:22:08.372Z,33.28
2023-05-06T11:23:08.387Z,33.29
2023-05-06T11:24:08.429Z,33.29
2023-05-06T11:25:08.360Z,33.27
2023-05-06T11:26:08.372Z,33.28
2023-05-06T11:27:08.382Z,33.27
2023-05-06T11:28:08.367Z,33.27
2023-05-06T11:29:08.364Z,33.24
2023-05-06T11:30:08.421Z,33.24
2023-05-06T11:31:08.459Z,33.23
2023-05-06T11:32:08.384Z,33.23
2023-05-06T11:33:08.430Z,33.22
2023-05-06T11:34:08.360Z,33.22
2023-05-06T11:35:08.359Z,33.24
2023-05-06T11:36:08.362Z,33.23
2023-05-06T11:37:08.382Z,33.24
2023-05-06T11:38:08.486Z,33.24
2023-05-06T11:39:08.397Z,33.23
2023-05-06T11:40:08.639Z,33.22
2023-05-06T11:41:08.367Z,33.22
2023-05-06T11:42:08.384Z,33.21
2023-05-06T11:43:08.345Z,33.22
2023-05-06T11:44:10.242Z,33.22
2023-05-06T11:45:08.313Z,33.22
2023-05-06T11:46:08.352Z,33.20
2023-05-06T11:47:08.377Z,33.21
2023-05-06T11:48:08.330Z,33.21
2023-05-06T11:49:08.326Z,33.20
2023-05-06T11:50:08.329Z,33.19
2023-05-06T11:51:08.348Z,33.18
2023-05-06T11:52:08.296Z,33.20
2023-05-06T11:53:08.288Z,33.20
2023-05-06T11:54:08.300Z,33.19
2023-05-06T11:55:08.281Z,33.16
2023-05-06T11:56:08.286Z,33.18
2023-05-06T11:57:08.284Z,33.17
2023-05-06T11:58:08.255Z,33.18
2023-05-06T11:59:08.374Z,33.15
2023-05-06T12:00:08.551Z,33.11
2023-05-06T12:01:08.236Z,33.14
2023-05-06T12:02:08.226Z,33.13
2023-05-06T12:03:08.381Z,33.11
2023-05-06T12:04:08.387Z,33.12
2023-05-06T12:05:08.265Z,33.12
2023-05-06T12:06:08.232Z,33.08
2023-05-06T12:07:08.210Z,33.07
2023-05-06T12:08:13.465Z,33.05
2023-05-06T12:09:09.189Z,33.05
2023-05-06T12:10:08.340Z,33.03
2023-05-06T12:11:08.206Z,33.04
2023-05-06T12:12:08.177Z,33.03
2023-05-06T12:13:08.216Z,33.02
2023-05-06T12:14:08.153Z,33.02
2023-05-06T12:15:08.111Z,33.04
2023-05-06T12:16:08.123Z,32.97
2023-05-06T12:17:08.112Z,32.98
2023-05-06T12:18:08.158Z,32.96
2023-05-06T12:19:08.145Z,32.96
2023-05-06T12:20:08.296Z,32.98
2023-05-06T12:21:08.346Z,32.93
2023-05-06T12:22:08.303Z,32.92
2023-05-06T12:23:08.362Z,32.90
2023-05-06T12:24:08.451Z,32.90
2023-05-06T12:25:08.524Z,32.90
2023-05-06T12:26:08.473Z,32.91
2023-05-06T12:27:08.544Z,32.90
2023-05-06T12:28:08.566Z,32.89
2023-05-06T12:29:08.604Z,32.85
2023-05-06T12:30:08.810Z,32.85
2023-05-06T12:31:08.698Z,32.87
2023-05-06T12:32:08.712Z,32.80
2023-05-06T12:33:08.777Z,32.79
2023-05-06T12:34:08.735Z,32.82
2023-05-06T12:35:08.787Z,32.82
2023-05-06T12:36:08.821Z,32.81
2023-05-06T12:37:08.980Z,32.80
2023-05-06T12:38:08.878Z,32.77
2023-05-06T12:39:08.858Z,32.76
2023-05-06T12:40:09.055Z,32.75
2023-05-06T12:41:08.959Z,32.76
2023-05-06T12:42:08.962Z,32.77
2023-05-06T12:43:08.990Z,32.75
2023-05-06T12:44:09.016Z,32.74
2023-05-06T12:45:09.028Z,32.75
2023-05-06T12:46:09.219Z,32.74
2023-05-06T12:47:09.093Z,32.73
2023-05-06T12:48:09.142Z,32.70
2023-05-06T12:49:09.143Z,32.73
2023-05-06T12:50:09.317Z,32.70
2023-05-06T12:51:09.163Z,32.68
2023-05-06T12:52:09.194Z,32.70
2023-05-06T12:53:09.315Z,32.67